ドバイ の空港の天気 - METARとTAF

ドバイ国際空港 ( OMDB / DXB ) - アラブ首長国連邦 ドバイ
飛行場実況気象(Metar)
観測時間03/29 01:00 +04 (03/28 21:00 UTC)
風向・風速不定 1m/s
視程10km以上
天気現象
なし
気温24℃
湿度74%
気圧1015hPa
METAROMDB 282100Z VRB02KT CAVOK 24/19 Q1015 NOSIG
過去の天気等 Google飛行場航空写真 Wunderground天気予報

過去48時間のMETAR

飛行場予報(TAF)
発表時間: 3/28 20:55 +04 (3/28 16:55 UTC)
予報対象時間: 28日22時 +04 ~ 30日4時 +04
風向・風速東北東 3m/s
視程8,000m
なし
29日4時 +04 から 確率 30% で
視程1,500m
天気現象もや
29日11時 +04 ~ 29日13時 +04 に徐々に
風向・風速北北西 5m/s
29日20時 +04 ~ 29日22時 +04 に徐々に
風向・風速東北東 3m/s
TAF OMDB 281655Z 2818/3000 07005KT 8000 NSC
PROB30 2900/2905 1500 BR
BECMG 2907/2909 33010KT
BECMG 2916/2918 07005KT